createdAt,value
2023-04-15T00:01:35.265Z,96482.59
2023-04-15T00:04:05.206Z,96481.35
2023-04-15T00:06:35.521Z,96484.55
2023-04-15T00:09:04.696Z,96481.59
2023-04-15T00:11:34.179Z,96479.51
2023-04-15T00:14:03.670Z,96480.25
2023-04-15T00:16:32.848Z,96482.48
2023-04-15T00:19:02.568Z,96484.19
2023-04-15T00:21:32.886Z,96486.17
2023-04-15T00:24:02.133Z,96490.77
2023-04-15T00:26:31.207Z,96497.83
2023-04-15T00:29:01.118Z,96498.02
2023-04-15T00:31:31.929Z,96502.48
2023-04-15T00:34:01.360Z,96506.35
2023-04-15T00:36:30.347Z,96509.98
2023-04-15T00:39:00.406Z,96509.70
2023-04-15T00:41:30.346Z,96511.62
2023-04-15T00:44:00.879Z,96511.80
2023-04-15T00:46:32.521Z,96513.80
2023-04-15T00:49:05.133Z,96513.27
2023-04-15T00:51:37.274Z,96508.54
2023-04-15T00:54:08.952Z,96506.64
2023-04-15T00:56:41.578Z,96507.45
2023-04-15T00:59:10.943Z,96506.60
2023-04-15T01:01:40.468Z,96498.06
2023-04-15T01:04:13.014Z,96491.10
2023-04-15T01:06:43.364Z,96488.40
2023-04-15T01:09:13.323Z,96494.10
2023-04-15T01:11:42.735Z,96493.23
2023-04-15T01:14:14.590Z,96498.48
2023-04-15T01:16:50.769Z,96494.44
2023-04-15T01:19:21.049Z,96494.23
2023-04-15T01:21:52.172Z,96496.88
2023-04-15T01:24:22.698Z,96493.02
2023-04-15T01:26:54.545Z,96496.36
2023-04-15T01:29:24.766Z,96494.31
2023-04-15T01:31:56.846Z,96488.56
2023-04-15T01:34:30.174Z,96487.69
2023-04-15T01:37:00.301Z,96489.78
2023-04-15T01:39:29.586Z,96491.41
2023-04-15T01:41:59.925Z,96492.69
2023-04-15T01:44:31.536Z,96493.25
2023-04-15T01:47:01.562Z,96496.07
2023-04-15T01:49:33.074Z,96492.75
2023-04-15T01:52:03.670Z,96491.39
2023-04-15T01:54:34.016Z,96492.38
2023-04-15T01:57:04.247Z,96491.39
2023-04-15T01:59:34.253Z,96497.52
2023-04-15T02:02:03.914Z,96498.15
2023-04-15T02:04:34.766Z,96502.13
2023-04-15T02:07:06.608Z,96506.02
2023-04-15T02:09:37.337Z,96507.53
2023-04-15T02:12:07.502Z,96507.02
2023-04-15T02:14:39.090Z,96504.77
2023-04-15T02:17:09.617Z,96502.24
2023-04-15T02:19:41.985Z,96494.98
2023-04-15T02:22:19.012Z,96491.27
2023-04-15T02:24:51.231Z,96485.52
2023-04-15T02:27:21.224Z,96486.52
2023-04-15T02:29:53.758Z,96482.70
2023-04-15T02:32:25.076Z,96476.87
2023-04-15T02:34:59.068Z,96475.89
2023-04-15T02:37:31.144Z,96478.60
2023-04-15T02:40:01.592Z,96475.30
2023-04-15T02:42:32.186Z,96479.00
2023-04-15T02:45:03.823Z,96482.14
2023-04-15T02:47:37.518Z,96481.29
2023-04-15T02:50:11.620Z,96478.02
2023-04-15T02:52:42.558Z,96477.15
2023-04-15T02:55:12.007Z,96478.62
2023-04-15T02:57:41.830Z,96479.88
2023-04-15T03:00:12.925Z,96477.19
2023-04-15T03:02:47.483Z,96473.63
2023-04-15T03:05:17.218Z,96473.41
2023-04-15T03:07:51.336Z,96477.48
2023-04-15T03:10:22.032Z,96481.82
2023-04-15T03:12:53.118Z,96482.94
2023-04-15T03:15:25.232Z,96483.40
2023-04-15T03:17:55.996Z,96485.52
2023-04-15T03:20:25.634Z,96488.95
2023-04-15T03:22:54.904Z,96488.79
2023-04-15T03:25:24.096Z,96492.41
2023-04-15T03:27:53.645Z,96495.08
2023-04-15T03:30:23.081Z,96499.19
2023-04-15T03:32:53.635Z,96501.34
2023-04-15T03:35:22.609Z,96500.55
2023-04-15T03:37:53.164Z,96505.35
2023-04-15T03:40:23.017Z,96509.77
2023-04-15T03:42:52.102Z,96515.16
2023-04-15T03:45:21.133Z,96523.97
2023-04-15T03:47:50.371Z,96525.66
2023-04-15T03:50:19.189Z,96524.16
2023-04-15T03:52:49.173Z,96519.38
2023-04-15T03:55:20.792Z,96518.87
2023-04-15T03:57:49.652Z,96523.52
2023-04-15T04:00:19.011Z,96524.83
2023-04-15T04:02:48.700Z,96527.44
2023-04-15T04:05:18.361Z,96530.61
2023-04-15T04:07:47.684Z,96534.16
2023-04-15T04:10:17.545Z,96539.36
2023-04-15T04:12:46.308Z,96542.23
2023-04-15T04:15:15.338Z,96542.47
2023-04-15T04:17:44.342Z,96536.66
2023-04-15T04:20:13.480Z,96536.58
2023-04-15T04:22:42.846Z,96522.19
2023-04-15T04:25:11.731Z,96513.55
2023-04-15T04:27:41.079Z,96512.70
2023-04-15T04:30:10.326Z,96516.96
2023-04-15T04:32:39.449Z,96521.95
2023-04-15T04:35:09.422Z,96529.64
2023-04-15T04:37:38.756Z,96531.15
2023-04-15T04:40:09.437Z,96529.14
2023-04-15T04:42:40.042Z,96530.76
2023-04-15T04:45:09.511Z,96532.56
2023-04-15T04:47:38.491Z,96537.01
2023-04-15T04:50:09.568Z,96539.44
2023-04-15T04:52:39.200Z,96544.40
2023-04-15T04:55:08.913Z,96544.09
2023-04-15T04:57:40.083Z,96539.48
2023-04-15T05:00:20.054Z,96540.98
2023-04-15T05:02:49.109Z,96541.83
2023-04-15T05:05:17.955Z,96542.06
2023-04-15T05:07:46.549Z,96538.66
2023-04-15T05:10:17.827Z,96536.58
2023-04-15T05:12:46.591Z,96539.77
2023-04-15T05:15:15.522Z,96539.55
2023-04-15T05:17:45.094Z,96539.83
2023-04-15T05:20:14.680Z,96541.57
2023-04-15T05:22:43.540Z,96533.05
2023-04-15T05:25:13.156Z,96531.77
2023-04-15T05:27:42.466Z,96533.21
2023-04-15T05:30:13.384Z,96535.40
2023-04-15T05:32:42.751Z,96543.16
2023-04-15T05:35:11.885Z,96541.29
2023-04-15T05:37:40.895Z,96540.37
2023-04-15T05:40:13.433Z,96543.19
2023-04-15T05:42:43.461Z,96541.23
2023-04-15T05:45:12.559Z,96540.10
2023-04-15T05:47:41.122Z,96543.61
2023-04-15T05:50:10.467Z,96548.23
2023-04-15T05:52:39.276Z,96555.44
2023-04-15T05:55:08.235Z,96557.97
2023-04-15T05:57:37.863Z,96559.58
2023-04-15T06:00:06.940Z,96557.95
2023-04-15T06:02:38.562Z,96557.10
2023-04-15T06:05:11.176Z,96556.96
2023-04-15T06:07:40.213Z,96560.49
2023-04-15T06:10:09.634Z,96560.30
2023-04-15T06:12:38.394Z,96564.23
2023-04-15T06:15:10.224Z,96561.84
2023-04-15T06:17:39.068Z,96563.04
2023-04-15T06:20:09.618Z,96561.14
2023-04-15T06:22:41.645Z,96561.59
2023-04-15T06:25:11.240Z,96559.76
2023-04-15T06:27:41.014Z,96564.91
2023-04-15T06:30:09.801Z,96565.09
2023-04-15T06:32:38.533Z,96564.45
2023-04-15T06:35:07.323Z,96570.92
2023-04-15T06:37:37.141Z,96569.66
2023-04-15T06:40:07.446Z,96565.98
2023-04-15T06:42:37.645Z,96566.15
2023-04-15T06:45:07.446Z,96572.89
2023-04-15T06:47:36.723Z,96577.03
2023-04-15T06:50:05.908Z,96576.91
2023-04-15T06:52:34.472Z,96581.95
2023-04-15T06:55:03.244Z,96581.92
2023-04-15T06:57:33.278Z,96586.02
2023-04-15T07:00:06.048Z,96587.30
2023-04-15T07:02:35.067Z,96594.02
2023-04-15T07:05:05.120Z,96596.05
2023-04-15T07:07:33.917Z,96594.52
2023-04-15T07:10:03.852Z,96597.80
2023-04-15T07:12:33.083Z,96599.09
2023-04-15T07:15:01.806Z,96594.88
2023-04-15T07:17:30.826Z,96590.36
2023-04-15T07:20:00.308Z,96590.35
2023-04-15T07:22:29.185Z,96591.58
2023-04-15T07:24:57.762Z,96596.80
2023-04-15T07:27:27.594Z,96602.41
2023-04-15T07:29:56.970Z,96598.78
2023-04-15T07:32:26.566Z,96602.14
2023-04-15T07:34:55.331Z,96600.65
2023-04-15T07:37:24.433Z,96602.21
2023-04-15T07:39:53.294Z,96604.74
2023-04-15T07:42:22.439Z,96609.89
2023-04-15T07:44:52.330Z,96610.09
2023-04-15T07:47:21.628Z,96611.49
2023-04-15T07:49:51.848Z,96608.77
2023-04-15T07:52:20.620Z,96610.88
2023-04-15T07:54:49.506Z,96613.48
2023-04-15T07:57:18.910Z,96617.44
2023-04-15T07:59:48.152Z,96619.85
2023-04-15T08:02:17.183Z,96615.05
2023-04-15T08:04:46.304Z,96612.13
2023-04-15T08:07:15.283Z,96613.92
2023-04-15T08:09:43.997Z,96606.99
2023-04-15T08:12:13.851Z,96608.44
2023-04-15T08:14:42.718Z,96609.03
2023-04-15T08:17:11.926Z,96608.51
2023-04-15T08:19:41.250Z,96606.67
2023-04-15T08:22:17.963Z,96608.98
2023-04-15T08:24:46.833Z,96610.95
2023-04-15T08:27:15.781Z,96609.35
2023-04-15T08:29:48.321Z,96611.36
2023-04-15T08:32:17.741Z,96612.42
2023-04-15T08:34:46.343Z,96616.94
2023-04-15T08:37:15.032Z,96619.45
2023-04-15T08:39:45.815Z,96624.64
2023-04-15T08:42:20.157Z,96632.27
2023-04-15T08:44:49.829Z,96627.33
2023-04-15T08:47:21.052Z,96627.79
2023-04-15T08:49:54.185Z,96619.92
2023-04-15T08:52:22.984Z,96621.30
2023-04-15T08:54:53.268Z,96616.77
2023-04-15T08:57:24.165Z,96611.81
2023-04-15T08:59:54.839Z,96614.48
2023-04-15T09:02:26.779Z,96612.57
2023-04-15T09:04:55.670Z,96612.88
2023-04-15T09:07:24.279Z,96612.64
2023-04-15T09:09:53.289Z,96610.47
2023-04-15T09:12:22.565Z,96615.16
2023-04-15T09:14:52.380Z,96612.17
2023-04-15T09:17:25.101Z,96612.61
2023-04-15T09:20:14.616Z,96617.31
2023-04-15T09:22:45.866Z,96616.38
2023-04-15T09:25:24.668Z,96613.11
2023-04-15T09:28:02.264Z,96614.34
2023-04-15T09:30:31.609Z,96612.55
2023-04-15T09:33:02.731Z,96607.17
2023-04-15T09:35:31.263Z,96605.60
2023-04-15T09:38:08.205Z,96606.17
2023-04-15T09:40:42.322Z,96605.25
2023-04-15T09:43:13.368Z,96610.36
2023-04-15T09:45:51.549Z,96611.88
2023-04-15T09:48:22.867Z,96608.98
2023-04-15T09:50:54.058Z,96603.09
2023-04-15T09:53:24.814Z,96600.83
2023-04-15T09:55:58.481Z,96612.09
2023-04-15T09:58:29.306Z,96616.92
2023-04-15T10:00:59.419Z,96617.73
2023-04-15T10:03:34.810Z,96614.33
2023-04-15T10:06:04.540Z,96609.42
2023-04-15T10:08:35.193Z,96608.83
2023-04-15T10:11:05.425Z,96607.84
2023-04-15T10:13:36.416Z,96610.42
2023-04-15T10:16:13.127Z,96607.34
2023-04-15T10:18:48.097Z,96601.49
2023-04-15T10:21:19.006Z,96598.16
2023-04-15T10:23:48.634Z,96593.85
2023-04-15T10:26:18.229Z,96588.14
2023-04-15T10:28:48.607Z,96581.48
2023-04-15T10:31:18.846Z,96581.25
2023-04-15T10:33:49.029Z,96574.01
2023-04-15T10:36:21.248Z,96576.31
2023-04-15T10:38:50.072Z,96572.77
2023-04-15T10:41:21.458Z,96572.98
2023-04-15T10:44:01.546Z,96567.41
2023-04-15T10:46:47.758Z,96566.08
2023-04-15T10:49:24.717Z,96565.02
2023-04-15T10:51:58.697Z,96557.99
2023-04-15T10:54:27.282Z,96554.16
2023-04-15T10:57:02.858Z,96553.86
2023-04-15T10:59:59.048Z,96551.89
2023-04-15T11:02:46.850Z,96552.68
2023-04-15T11:05:17.177Z,96547.99
2023-04-15T11:07:57.492Z,96546.95
2023-04-15T11:10:26.477Z,96550.42
2023-04-15T11:12:59.550Z,96553.14
2023-04-15T11:15:31.425Z,96552.77
2023-04-15T11:18:14.716Z,96554.45
2023-04-15T11:20:47.439Z,96556.61
2023-04-15T11:23:18.256Z,96560.39
2023-04-15T11:25:48.963Z,96559.85
2023-04-15T11:28:17.838Z,96561.46
2023-04-15T11:30:46.524Z,96562.14
2023-04-15T11:33:15.054Z,96562.16
2023-04-15T11:35:44.377Z,96565.13
2023-04-15T11:38:14.166Z,96562.86
2023-04-15T11:40:46.820Z,96557.04
2023-04-15T11:43:22.090Z,96561.41
2023-04-15T11:46:02.298Z,96562.39
2023-04-15T11:48:36.523Z,96565.77
2023-04-15T11:51:07.268Z,96565.27
2023-04-15T11:53:47.398Z,96565.66
2023-04-15T11:56:27.529Z,96564.44
2023-04-15T11:59:01.178Z,96567.20
2023-04-15T12:01:40.951Z,96563.27
2023-04-15T12:04:15.132Z,96560.67
2023-04-15T12:06:44.022Z,96560.09
2023-04-15T12:09:20.673Z,96554.64
2023-04-15T12:11:57.755Z,96558.62
2023-04-15T12:14:31.718Z,96553.48
2023-04-15T12:17:03.712Z,96554.48
2023-04-15T12:19:38.026Z,96552.61
2023-04-15T12:22:11.337Z,96547.47
2023-04-15T12:24:41.092Z,96551.92
2023-04-15T12:27:12.283Z,96547.00
2023-04-15T12:29:43.481Z,96548.73
2023-04-15T12:32:22.985Z,96542.70
2023-04-15T12:34:54.659Z,96558.95
2023-04-15T12:37:23.432Z,96554.19
2023-04-15T12:39:52.668Z,96555.26
2023-04-15T12:42:22.858Z,96552.23
2023-04-15T12:44:51.592Z,96552.74
2023-04-15T12:47:20.266Z,96550.28
2023-04-15T12:49:50.015Z,96547.34
2023-04-15T12:52:18.564Z,96548.65
2023-04-15T12:54:47.111Z,96553.02
2023-04-15T12:57:15.813Z,96553.30
2023-04-15T12:59:44.588Z,96555.99
2023-04-15T13:02:13.950Z,96552.37
2023-04-15T13:04:42.709Z,96556.20
2023-04-15T13:07:15.845Z,96550.81
2023-04-15T13:09:45.328Z,96550.92
2023-04-15T13:12:14.820Z,96548.13
2023-04-15T13:14:43.557Z,96554.66
2023-04-15T13:17:12.331Z,96554.09
2023-04-15T13:19:41.217Z,96556.35
2023-04-15T13:22:10.254Z,96555.14
2023-04-15T13:24:39.663Z,96553.04
2023-04-15T13:27:08.783Z,96555.48
2023-04-15T13:29:39.255Z,96555.48
2023-04-15T13:32:08.095Z,96555.44
2023-04-15T13:34:36.881Z,96551.98
2023-04-15T13:37:09.223Z,96553.34
2023-04-15T13:39:38.039Z,96557.27
2023-04-15T13:42:06.741Z,96561.89
2023-04-15T13:44:36.667Z,96561.94
2023-04-15T13:47:05.162Z,96563.69
2023-04-15T13:49:33.653Z,96566.80
2023-04-15T13:52:02.402Z,96574.42
2023-04-15T13:54:37.933Z,96580.14
2023-04-15T13:57:07.433Z,96585.33
2023-04-15T13:59:36.167Z,96589.73
2023-04-15T14:02:05.073Z,96594.09
2023-04-15T14:04:34.068Z,96600.05
2023-04-15T14:07:05.285Z,96606.27
2023-04-15T14:09:35.821Z,96611.90
2023-04-15T14:12:05.164Z,96610.38
2023-04-15T14:14:33.798Z,96609.77
2023-04-15T14:17:04.097Z,96612.31
2023-04-15T14:19:33.389Z,96611.09
2023-04-15T14:22:01.982Z,96614.86
2023-04-15T14:24:30.650Z,96616.80
2023-04-15T14:26:59.913Z,96615.33
2023-04-15T14:29:28.880Z,96614.84
2023-04-15T14:32:07.663Z,96616.89
2023-04-15T14:34:41.576Z,96620.48
2023-04-15T14:37:10.419Z,96619.86
2023-04-15T14:39:39.901Z,96621.95
2023-04-15T14:42:08.527Z,96618.66
2023-04-15T14:44:37.213Z,96617.25
2023-04-15T14:47:06.471Z,96613.48
2023-04-15T14:49:35.176Z,96614.63
2023-04-15T14:52:04.361Z,96612.84
2023-04-15T14:54:32.987Z,96610.11
2023-04-15T14:57:02.419Z,96609.94
2023-04-15T14:59:31.165Z,96605.07
2023-04-15T15:02:00.254Z,96605.46
2023-04-15T15:04:29.811Z,96608.09
2023-04-15T15:06:58.607Z,96608.14
2023-04-15T15:09:27.228Z,96614.72
2023-04-15T15:11:57.309Z,96620.46
2023-04-15T15:14:26.499Z,96620.11
2023-04-15T15:16:55.053Z,96621.42
2023-04-15T15:19:25.225Z,96625.15
2023-04-15T15:21:53.698Z,96624.36
2023-04-15T15:24:22.324Z,96620.64
2023-04-15T15:26:51.049Z,96621.83
2023-04-15T15:29:21.403Z,96628.13
2023-04-15T15:31:51.144Z,96629.56
2023-04-15T15:34:19.919Z,96631.31
2023-04-15T15:36:49.158Z,96636.58
2023-04-15T15:39:17.906Z,96639.27
2023-04-15T15:41:46.492Z,96647.73
2023-04-15T15:44:15.281Z,96649.58
2023-04-15T15:46:44.046Z,96653.75
2023-04-15T15:49:13.134Z,96654.14
2023-04-15T15:51:41.767Z,96656.78
2023-04-15T15:54:10.337Z,96659.74
2023-04-15T15:56:39.781Z,96661.48
2023-04-15T15:59:08.420Z,96671.35
2023-04-15T16:01:37.142Z,96674.12
2023-04-15T16:04:06.114Z,96677.67
2023-04-15T16:06:35.345Z,96683.64
2023-04-15T16:09:04.654Z,96686.14
2023-04-15T16:11:33.482Z,96688.57
2023-04-15T16:14:02.099Z,96697.02
2023-04-15T16:16:31.371Z,96696.59
2023-04-15T16:19:00.413Z,96701.08
2023-04-15T16:21:29.322Z,96706.30
2023-04-15T16:23:58.118Z,96706.63
2023-04-15T16:26:26.678Z,96708.55
2023-04-15T16:28:55.101Z,96722.02
2023-04-15T16:31:23.816Z,96723.17
2023-04-15T16:33:52.361Z,96724.61
2023-04-15T16:36:20.972Z,96723.45
2023-04-15T16:38:49.732Z,96720.70
2023-04-15T16:41:18.886Z,96723.22
2023-04-15T16:43:47.485Z,96723.55
2023-04-15T16:46:16.182Z,96724.93
2023-04-15T16:48:44.825Z,96727.79
2023-04-15T16:51:13.490Z,96735.23
2023-04-15T16:53:42.098Z,96740.14
2023-04-15T16:56:10.995Z,96743.68
2023-04-15T16:58:39.577Z,96743.34
2023-04-15T17:01:08.718Z,96743.84
2023-04-15T17:03:37.505Z,96743.92
2023-04-15T17:06:06.321Z,96750.91
2023-04-15T17:08:34.890Z,96754.61
2023-04-15T17:11:03.645Z,96758.29
2023-04-15T17:13:32.509Z,96758.82
2023-04-15T17:16:02.593Z,96759.88
2023-04-15T17:18:31.719Z,96766.11
2023-04-15T17:21:00.430Z,96771.58
2023-04-15T17:23:29.318Z,96770.91
2023-04-15T17:25:57.894Z,96771.75
2023-04-15T17:28:26.526Z,96779.17
2023-04-15T17:30:55.435Z,96781.89
2023-04-15T17:33:57.380Z,96785.63
2023-04-15T17:36:12.962Z,96792.68
2023-04-15T17:38:41.527Z,96799.55
2023-04-15T17:41:10.166Z,96803.02
2023-04-15T17:43:38.868Z,96807.77
2023-04-15T17:46:08.094Z,96816.63
2023-04-15T17:48:36.943Z,96821.14
2023-04-15T17:51:05.689Z,96822.41
2023-04-15T17:53:34.215Z,96827.77
2023-04-15T17:56:02.792Z,96832.81
2023-04-15T17:58:31.935Z,96833.48
2023-04-15T18:01:00.535Z,96837.59
2023-04-15T18:03:29.330Z,96842.04
2023-04-15T18:05:58.117Z,96843.05
2023-04-15T18:08:26.673Z,96845.81
2023-04-15T18:10:55.256Z,96850.58
2023-04-15T18:13:23.911Z,96857.64
2023-04-15T18:15:52.544Z,96860.17
2023-04-15T18:18:21.438Z,96868.20
2023-04-15T18:20:50.283Z,96870.02
2023-04-15T18:23:18.918Z,96876.86
2023-04-15T18:25:47.687Z,96887.05
2023-04-15T18:28:16.665Z,96894.60
2023-04-15T18:30:45.154Z,96899.06
2023-04-15T18:33:13.542Z,96903.55
2023-04-15T18:35:43.278Z,96908.67
2023-04-15T18:38:11.872Z,96907.16
2023-04-15T18:40:40.496Z,96905.64
2023-04-15T18:43:09.924Z,96910.40
2023-04-15T18:45:38.490Z,96910.02
2023-04-15T18:48:07.358Z,96914.04
2023-04-15T18:50:36.287Z,96917.58
2023-04-15T18:53:05.174Z,96919.22
2023-04-15T18:55:33.800Z,96917.30
2023-04-15T18:58:08.314Z,96913.14
2023-04-15T19:00:41.941Z,96916.27
2023-04-15T19:03:11.755Z,96917.97
2023-04-15T19:05:40.668Z,96922.83
2023-04-15T19:08:09.454Z,96917.53
2023-04-15T19:10:39.032Z,96914.77
2023-04-15T19:13:07.634Z,96915.27
2023-04-15T19:15:36.369Z,96917.25
2023-04-15T19:18:10.524Z,96917.58
2023-04-15T19:20:40.264Z,96914.59
2023-04-15T19:23:10.117Z,96917.13
2023-04-15T19:25:38.645Z,96917.59
2023-04-15T19:28:07.302Z,96922.81
2023-04-15T19:30:36.513Z,96925.37
2023-04-15T19:33:05.130Z,96927.30
2023-04-15T19:35:34.035Z,96931.50
2023-04-15T19:38:03.498Z,96930.98
2023-04-15T19:40:31.985Z,96931.02
2023-04-15T19:43:00.597Z,96937.67
2023-04-15T19:45:29.083Z,96940.00
2023-04-15T19:47:58.179Z,96944.63
2023-04-15T19:50:28.044Z,96948.16
2023-04-15T19:52:56.528Z,96950.22
2023-04-15T19:55:25.192Z,96944.86
2023-04-15T19:57:53.793Z,96944.73
2023-04-15T20:00:22.278Z,96945.40
2023-04-15T20:02:50.978Z,96946.08
2023-04-15T20:05:19.768Z,96949.06
2023-04-15T20:07:51.968Z,96952.05
2023-04-15T20:10:21.863Z,96955.63
2023-04-15T20:12:53.017Z,96955.27
2023-04-15T20:15:24.067Z,96959.19
2023-04-15T20:17:52.879Z,96958.52
2023-04-15T20:20:22.473Z,96962.73
2023-04-15T20:22:53.065Z,96965.30
2023-04-15T20:25:21.652Z,96972.35
2023-04-15T20:27:50.722Z,96972.61
2023-04-15T20:30:19.531Z,96971.98
2023-04-15T20:32:48.062Z,96972.90
2023-04-15T20:35:16.575Z,96974.38
2023-04-15T20:37:45.400Z,96973.51
2023-04-15T20:40:14.607Z,96975.08
2023-04-15T20:42:43.999Z,96974.59
2023-04-15T20:45:12.683Z,96975.59
2023-04-15T20:47:41.895Z,96972.62
2023-04-15T20:50:11.422Z,96977.05
2023-04-15T20:52:40.252Z,96976.52
2023-04-15T20:55:09.296Z,96984.19
2023-04-15T20:57:37.844Z,96989.25
2023-04-15T21:00:09.549Z,96989.87
2023-04-15T21:02:38.846Z,96989.92
2023-04-15T21:05:08.274Z,96993.80
2023-04-15T21:07:36.992Z,96994.86
2023-04-15T21:10:06.624Z,96991.54
2023-04-15T21:12:38.030Z,96992.35
2023-04-15T21:15:07.879Z,96994.09
2023-04-15T21:17:36.582Z,96996.52
2023-04-15T21:20:06.553Z,96998.41
2023-04-15T21:22:35.557Z,96997.54
2023-04-15T21:25:04.506Z,97000.59
2023-04-15T21:27:33.322Z,97000.70
2023-04-15T21:30:02.770Z,97004.49
2023-04-15T21:32:31.939Z,97011.48
2023-04-15T21:35:00.835Z,97007.84
2023-04-15T21:37:29.551Z,97008.87
2023-04-15T21:39:58.358Z,97013.38
2023-04-15T21:42:27.655Z,97009.38
2023-04-15T21:44:56.554Z,97012.40
2023-04-15T21:47:25.246Z,97017.81
2023-04-15T21:49:54.300Z,97022.39
2023-04-15T21:52:23.326Z,97024.80
2023-04-15T21:54:51.926Z,97024.38
2023-04-15T21:57:20.988Z,97025.73
2023-04-15T21:59:49.990Z,97024.25
2023-04-15T22:02:18.981Z,97028.48
2023-04-15T22:04:48.612Z,97030.73
2023-04-15T22:07:17.364Z,97030.27
2023-04-15T22:09:46.955Z,97038.76
2023-04-15T22:12:15.922Z,97040.20
2023-04-15T22:14:44.622Z,97045.50
2023-04-15T22:17:13.292Z,97044.52
2023-04-15T22:19:42.191Z,97043.67
2023-04-15T22:22:11.802Z,97045.30
2023-04-15T22:24:40.772Z,97044.44
2023-04-15T22:27:09.794Z,97047.37
2023-04-15T22:29:38.475Z,97052.22
2023-04-15T22:32:08.318Z,97051.50
2023-04-15T22:34:37.213Z,97056.56
2023-04-15T22:37:07.150Z,97054.23
2023-04-15T22:39:36.213Z,97055.11
2023-04-15T22:42:04.966Z,97052.49
2023-04-15T22:44:34.102Z,97053.55
2023-04-15T22:47:03.028Z,97052.55
2023-04-15T22:49:32.251Z,97055.10
2023-04-15T22:52:01.273Z,97053.45
2023-04-15T22:54:30.126Z,97054.05
2023-04-15T22:56:58.855Z,97054.45
2023-04-15T22:59:27.671Z,97056.07
2023-04-15T23:01:58.353Z,97060.98
2023-04-15T23:04:28.264Z,97060.88
2023-04-15T23:06:57.487Z,97059.64
2023-04-15T23:09:26.633Z,97067.16
2023-04-15T23:11:57.147Z,97068.70
2023-04-15T23:14:28.307Z,97073.84
2023-04-15T23:16:58.249Z,97076.29
2023-04-15T23:19:26.984Z,97076.77
2023-04-15T23:21:56.399Z,97070.16
2023-04-15T23:24:25.388Z,97070.36
2023-04-15T23:26:54.303Z,97074.27
2023-04-15T23:29:23.267Z,97076.21
2023-04-15T23:31:54.056Z,97072.27
2023-04-15T23:34:23.731Z,97074.03
2023-04-15T23:36:52.829Z,97076.55
2023-04-15T23:39:22.207Z,97079.23
2023-04-15T23:41:51.588Z,97079.89
2023-04-15T23:44:20.696Z,97077.89
2023-04-15T23:46:49.631Z,97079.47
2023-04-15T23:49:20.209Z,97078.58
2023-04-15T23:51:49.774Z,97079.33
2023-04-15T23:54:18.901Z,97076.67
2023-04-15T23:56:48.739Z,97076.05
2023-04-15T23:59:17.958Z,97073.34
